Observation data for Dora on 11/14/2019      Previous  Date  Next       Current Mesonet Observations  Soil Data  Daily Summary Page  Observations in Plain Language
KDR1 140600Z 03009KT 04/M07 A3013 RMK A01 T00381068  RH  046%=      5-min Rain = 0
KDR1 140605Z 03008KT 04/M07 A3013 RMK A01 T00361068  RH  046%=      5-min Rain = 0
KDR1 140610Z 03008KT 03/M07 A3013 RMK A01 T00311068  RH  048%=      5-min Rain = 0
KDR1 140615Z 02008KT 03/M07 A3013 RMK A01 T00271067  RH  050%=      5-min Rain = 0
KDR1 140620Z 02008KT 03/M07 A3013 RMK A01 T00251068  RH  050%=      5-min Rain = 0
KDR1 140625Z 02007KT 02/M07 A3014 RMK A01 T00221068  RH  051%=      5-min Rain = 0
KDR1 140630Z 01007KT 02/M07 A3014 RMK A01 T00191068  RH  052%=      5-min Rain = 0
KDR1 140635Z 00007KT 02/M07 A3014 RMK A01 T00151065  RH  055%=      5-min Rain = 0
KDR1 140640Z 00008KT 01/M07 A3014 RMK A01 T00131065  RH  056%=      5-min Rain = 0
KDR1 140645Z 01009KT 02/M06 A3014 RMK A01 T00171064  RH  055%=      5-min Rain = 0
KDR1 140650Z 01008KT 02/M07 A3014 RMK A01 T00201065  RH  053%=      5-min Rain = 0
KDR1 140655Z 01008KT 02/M07 A3014 RMK A01 T00181065  RH  054%=      5-min Rain = 0
KDR1 140700Z 01008KT 02/M07 A3015 RMK A01 T00191065  RH  054%=      5-min Rain = 0
KDR1 140705Z 00008KT 02/M07 A3015 RMK A01 T00161065  RH  055%=      5-min Rain = 0
KDR1 140710Z 36008KT 01/M06 A3015 RMK A01 T00131064  RH  057%=      5-min Rain = 0
KDR1 140715Z 35008KT 01/M06 A3015 RMK A01 T00101063  RH  058%=      5-min Rain = 0
KDR1 140720Z 35009KT 01/M06 A3015 RMK A01 T00101063  RH  058%=      5-min Rain = 0
KDR1 140725Z 36008KT 01/M06 A3016 RMK A01 T00111063  RH  058%=      5-min Rain = 0
KDR1 140730Z 36008KT 01/M06 A3016 RMK A01 T00101063  RH  058%=      5-min Rain = 0
KDR1 140735Z 00008KT 01/M06 A3016 RMK A01 T00111064  RH  058%=      5-min Rain = 0
KDR1 140740Z 00007KT 01/M06 A3016 RMK A01 T00111064  RH  057%=      5-min Rain = 0
KDR1 140745Z 00007KT 01/M06 A3016 RMK A01 T00131064  RH  057%=      5-min Rain = 0
KDR1 140750Z 01008KT 01/M06 A3016 RMK A01 T00121064  RH  057%=      5-min Rain = 0
KDR1 140755Z 01008KT 01/M06 A3017 RMK A01 T00111063  RH  058%=      5-min Rain = 0
KDR1 140800Z 00008KT 01/M06 A3017 RMK A01 T00091063  RH  059%=      5-min Rain = 0
KDR1 140805Z 00008KT 01/M06 A3017 RMK A01 T00071063  RH  059%=      5-min Rain = 0
KDR1 140810Z 36008KT 00/M06 A3017 RMK A01 T00031062  RH  061%=      5-min Rain = 0
KDR1 140815Z 36008KT 00/M06 A3017 RMK A01 T00031062  RH  062%=      5-min Rain = 0
KDR1 140820Z 01008KT 01/M06 A3018 RMK A01 T00051063  RH  061%=      5-min Rain = 0
KDR1 140825Z 01007KT 01/M06 A3018 RMK A01 T00061063  RH  060%=      5-min Rain = 0
KDR1 140830Z 02007KT 01/M06 A3018 RMK A01 T00051063  RH  060%=      5-min Rain = 0
KDR1 140835Z 02007KT 00/M06 A3018 RMK A01 T00041063  RH  060%=      5-min Rain = 0
KDR1 140840Z 02007KT 00/M06 A3018 RMK A01 T00041064  RH  061%=      5-min Rain = 0
KDR1 140845Z 01007KT M00/M07 A3018 RMK A01 T10011065  RH  062%=      5-min Rain = 0
KDR1 140850Z 01007KT M00/M06 A3018 RMK A01 T10011064  RH  063%=      5-min Rain = 0
KDR1 140855Z 01008KT 00/06 A3018 RMK A01 T00000-64  RH  062%=      5-min Rain = 0
KDR1 140900Z 01008KT M00/M06 A3018 RMK A01 T10011064  RH  062%=      5-min Rain = 0
KDR1 140905Z 01007KT M00/M07 A3018 RMK A01 T10021065  RH  063%=      5-min Rain = 0
KDR1 140910Z 01007KT M00/M06 A3019 RMK A01 T10041064  RH  064%=      5-min Rain = 0
KDR1 140915Z 01008KT 00/M06 A3019 RMK A01 T00021063  RH  062%=      5-min Rain = 0
KDR1 140920Z 01008KT 01/M06 A3018 RMK A01 T00051064  RH  060%=      5-min Rain = 0
KDR1 140925Z 01007KT 00/M06 A3019 RMK A01 T00041064  RH  060%=      5-min Rain = 0
KDR1 140930Z 02006KT 00/M07 A3019 RMK A01 T00041065  RH  060%=      5-min Rain = 0
KDR1 140935Z 01005KT 00/M07 A3019 RMK A01 T00021065  RH  060%=      5-min Rain = 0
KDR1 140940Z 00005KT 00/07 A3019 RMK A01 T00000-66  RH  061%=      5-min Rain = 0
KDR1 140945Z 01005KT M00/M07 A3019 RMK A01 T10031065  RH  063%=      5-min Rain = 0
KDR1 140950Z 00005KT M00/M07 A3019 RMK A01 T10031065  RH  063%=      5-min Rain = 0
KDR1 140955Z 00006KT M00/M06 A302 RMK A01 T10031064  RH  064%=      5-min Rain = 0
KDR1 141000Z 01006KT M00/M07 A302 RMK A01 T10041065  RH  063%=      5-min Rain = 0
KDR1 141005Z 00006KT M01/M07 A302 RMK A01 T10051065  RH  064%=      5-min Rain = 0
KDR1 141010Z 00006KT M01/M07 A302 RMK A01 T10081065  RH  065%=      5-min Rain = 0
KDR1 141015Z 01007KT M01/M07 A302 RMK A01 T10091065  RH  066%=      5-min Rain = 0
KDR1 141020Z 01007KT M01/M07 A302 RMK A01 T10081066  RH  065%=      5-min Rain = 0
KDR1 141025Z 00007KT M01/M07 A3021 RMK A01 T10101066  RH  066%=      5-min Rain = 0
KDR1 141030Z 00007KT M01/M07 A3021 RMK A01 T10141065  RH  068%=      5-min Rain = 0
KDR1 141035Z 01008KT M01/M06 A3021 RMK A01 T10121064  RH  068%=      5-min Rain = 0
KDR1 141040Z 00008KT M01/M06 A3021 RMK A01 T10091064  RH  066%=      5-min Rain = 0
KDR1 141045Z 00007KT M01/M06 A3021 RMK A01 T10091064  RH  066%=      5-min Rain = 0
KDR1 141050Z 01006KT M01/M07 A3021 RMK A01 T10111065  RH  067%=      5-min Rain = 0
KDR1 141055Z 01006KT M01/M07 A3021 RMK A01 T10111065  RH  067%=      5-min Rain = 0
KDR1 141100Z 02007KT M01/M07 A3022 RMK A01 T10101066  RH  066%=      5-min Rain = 0
KDR1 141105Z 02007KT M01/M07 A3022 RMK A01 T10091066  RH  066%=      5-min Rain = 0
KDR1 141110Z 02007KT M01/M07 A3022 RMK A01 T10091065  RH  066%=      5-min Rain = 0
KDR1 141115Z 02007KT M01/M07 A3022 RMK A01 T10091065  RH  066%=      5-min Rain = 0
KDR1 141120Z 01007KT M01/M07 A3022 RMK A01 T10091065  RH  066%=      5-min Rain = 0
KDR1 141125Z 01007KT M01/M07 A3023 RMK A01 T10111065  RH  067%=      5-min Rain = 0
KDR1 141130Z 01008KT M01/M07 A3023 RMK A01 T10111065  RH  067%=      5-min Rain = 0
KDR1 141135Z 01008KT M01/M06 A3023 RMK A01 T10101064  RH  066%=      5-min Rain = 0
KDR1 141140Z 01007KT M01/M07 A3023 RMK A01 T10131065  RH  068%=      5-min Rain = 0
KDR1 141145Z 01007KT M01/M06 A3024 RMK A01 T10141064  RH  068%=      5-min Rain = 0
KDR1 141150Z 02008KT M01/M06 A3024 RMK A01 T10111063  RH  068%=      5-min Rain = 0
KDR1 141155Z 02007KT M01/M06 A3024 RMK A01 T10081063  RH  066%=      5-min Rain = 0
KDR1 141200Z 02008KT M01/M07 A3025 RMK A01 T10121065  RH  067%=      5-min Rain = 0
KDR1 141205Z 02008KT M02/M07 A3025 RMK A01 T10151065  RH  069%=      5-min Rain = 0
KDR1 141210Z 02008KT M01/M06 A3025 RMK A01 T10121063  RH  069%=      5-min Rain = 0
KDR1 141215Z 03007KT M01/M06 A3025 RMK A01 T10131063  RH  069%=      5-min Rain = 0
KDR1 141220Z 02008KT M01/M06 A3026 RMK A01 T10131063  RH  069%=      5-min Rain = 0
KDR1 141225Z 02008KT M01/M06 A3026 RMK A01 T10141063  RH  069%=      5-min Rain = 0
KDR1 141230Z 03008KT M01/M06 A3026 RMK A01 T10141062  RH  070%=      5-min Rain = 0
KDR1 141235Z 02008KT M01/M06 A3026 RMK A01 T10141062  RH  070%=      5-min Rain = 0
KDR1 141240Z 02008KT M01/M06 A3027 RMK A01 T10131061  RH  070%=      5-min Rain = 0
KDR1 141245Z 03008KT M01/M06 A3027 RMK A01 T10131061  RH  070%=      5-min Rain = 0
KDR1 141250Z 02007KT M01/M06 A3027 RMK A01 T10131061  RH  070%=      5-min Rain = 0
KDR1 141255Z 02007KT M02/M06 A3028 RMK A01 T10151062  RH  070%=      5-min Rain = 0
KDR1 141300Z 02007KT M02/M06 A3028 RMK A01 T10161062  RH  071%=      5-min Rain = 0
KDR1 141305Z 02006KT M02/M06 A3028 RMK A01 T10171063  RH  071%=      5-min Rain = 0
KDR1 141310Z 03006KT M02/M06 A3029 RMK A01 T10191063  RH  072%=      5-min Rain = 0
KDR1 141315Z 02007KT M02/M06 A3029 RMK A01 T10211064  RH  072%=      5-min Rain = 0
KDR1 141320Z 02007KT M02/M06 A3029 RMK A01 T10211063  RH  073%=      5-min Rain = 0
KDR1 141325Z 02007KT M02/M06 A303 RMK A01 T10191062  RH  072%=      5-min Rain = 0
KDR1 141330Z 02006KT M02/M06 A303 RMK A01 T10171062  RH  072%=      5-min Rain = 0
KDR1 141335Z 02007KT M02/M06 A303 RMK A01 T10171062  RH  072%=      5-min Rain = 0
KDR1 141340Z 02006KT M02/M06 A3031 RMK A01 T10171061  RH  072%=      5-min Rain = 0
KDR1 141345Z 02006KT M01/M06 A3031 RMK A01 T10141059  RH  072%=      5-min Rain = 0
KDR1 141350Z 01006KT M01/M06 A3031 RMK A01 T10111058  RH  071%=      5-min Rain = 0
KDR1 141355Z 01005KT M01/M06 A3031 RMK A01 T10091057  RH  070%=      5-min Rain = 0
KDR1 141400Z 01005KT M01/M06 A3032 RMK A01 T10061055  RH  069%=      5-min Rain = 0
KDR1 141405Z 01005KT M00/M06 A3032 RMK A01 T10041055  RH  069%=      5-min Rain = 0
KDR1 141410Z 01005KT M00/M05 A3032 RMK A01 T10021053  RH  068%=      5-min Rain = 0
KDR1 141415Z 01005KT 00/M05 A3032 RMK A01 T00021052  RH  067%=      5-min Rain = 0
KDR1 141420Z 01005KT 01/M05 A3033 RMK A01 T00051051  RH  066%=      5-min Rain = 0
KDR1 141425Z 01005KT 01/M05 A3034 RMK A01 T00091051  RH  064%=      5-min Rain = 0
KDR1 141430Z 02006KT 01/M05 A3034 RMK A01 T00131051  RH  063%=      5-min Rain = 0
KDR1 141435Z 02005KT 02/M05 A3034 RMK A01 T00151050  RH  062%=      5-min Rain = 0
KDR1 141440Z 03004KT 02/M05 A3035 RMK A01 T00201046  RH  062%=      5-min Rain = 0
KDR1 141445Z 04005KT 02/M05 A3035 RMK A01 T00241047  RH  060%=      5-min Rain = 0
KDR1 141450Z 04007KT 03/M05 A3035 RMK A01 T00261046  RH  059%=      5-min Rain = 0
KDR1 141455Z 04006KT 03/M05 A3036 RMK A01 T00281045  RH  059%=      5-min Rain = 0
KDR1 141500Z 04006KT 03/M04 A3036 RMK A01 T00331041  RH  058%=      5-min Rain = 0
KDR1 141505Z 05007KT 04/M04 A3036 RMK A01 T00361040  RH  058%=      5-min Rain = 0
KDR1 141510Z 05008KT 04/M04 A3037 RMK A01 T00371038  RH  058%=      5-min Rain = 0
KDR1 141515Z 06006KT 04/M04 A3037 RMK A01 T00421036  RH  057%=      5-min Rain = 0
KDR1 141520Z 06008KT 05/M04 A3037 RMK A01 T00451035  RH  057%=      5-min Rain = 0
KDR1 141525Z 06008KT 05/M03 A3038 RMK A01 T00471032  RH  057%=      5-min Rain = 0
KDR1 141530Z 05008KT 05/M03 A3038 RMK A01 T00471033  RH  056%=      5-min Rain = 0
KDR1 141535Z 07009KT 05/M03 A3038 RMK A01 T00491031  RH  056%=      5-min Rain = 0
KDR1 141540Z 06008KT 05/M03 A3039 RMK A01 T00511029  RH  057%=      5-min Rain = 0
KDR1 141545Z 08008KT 05/M03 A3039 RMK A01 T00521027  RH  057%=      5-min Rain = 0
KDR1 141550Z 07009KT 06/M02 A3039 RMK A01 T00551023  RH  057%=      5-min Rain = 0
KDR1 141555Z 07009KT 06/M02 A3039 RMK A01 T00581020  RH  058%=      5-min Rain = 0
KDR1 141600Z 07010KT 06/M02 A3039 RMK A01 T00581020  RH  058%=      5-min Rain = 0
KDR1 141605Z 07010KT 06/M02 A304 RMK A01 T00581019  RH  058%=      5-min Rain = 0
KDR1 141610Z 07010KT 06/M02 A304 RMK A01 T00611017  RH  058%=      5-min Rain = 0
KDR1 141615Z 08009KT 06/M02 A304 RMK A01 T00611018  RH  057%=      5-min Rain = 0
KDR1 141620Z 07009KT 06/M02 A304 RMK A01 T00631017  RH  057%=      5-min Rain = 0
KDR1 141625Z 08009KT 07/M02 A304 RMK A01 T00671016  RH  056%=      5-min Rain = 0
KDR1 141630Z 06010G15KT 07/M01 A304 RMK A01 T00671012  RH  058%=      5-min Rain = 0
KDR1 141635Z 07011KT 07/M01 A304 RMK A01 T00721007  RH  058%=      5-min Rain = 0
KDR1 141640Z 08011KT 07/M01 A304 RMK A01 T00741006  RH  057%=      5-min Rain = 0
KDR1 141645Z 07011G16KT 08/M01 A304 RMK A01 T00751006  RH  057%=      5-min Rain = 0
KDR1 141650Z 07012KT 08/M01 A3041 RMK A01 T00751006  RH  057%=      5-min Rain = 0
KDR1 141655Z 07012KT 08/M01 A3041 RMK A01 T00761006  RH  056%=      5-min Rain = 0
KDR1 141700Z 07011KT 08/M01 A3041 RMK A01 T00791005  RH  056%=      5-min Rain = 0
KDR1 141705Z 07011KT 08/M01 A3041 RMK A01 T00811007  RH  054%=      5-min Rain = 0
KDR1 141710Z 07010KT 08/M01 A3041 RMK A01 T00811007  RH  054%=      5-min Rain = 0
KDR1 141715Z 08011G16KT 08/M01 A3041 RMK A01 T00821007  RH  054%=      5-min Rain = 0
KDR1 141720Z 08010KT 08/M01 A3041 RMK A01 T00831006  RH  054%=      5-min Rain = 0
KDR1 141725Z 07010KT 09/M01 A3041 RMK A01 T00861006  RH  053%=      5-min Rain = 0
KDR1 141730Z 06010KT 09/M01 A3041 RMK A01 T00861005  RH  054%=      5-min Rain = 0
KDR1 141735Z 08009KT 09/M00 A3041 RMK A01 T00871004  RH  053%=      5-min Rain = 0
KDR1 141740Z 07010KT 09/M01 A3041 RMK A01 T00891005  RH  052%=      5-min Rain = 0
KDR1 141745Z 06009KT 09/M01 A304 RMK A01 T00901005  RH  052%=      5-min Rain = 0
KDR1 141750Z 07009KT 09/M01 A304 RMK A01 T00911005  RH  052%=      5-min Rain = 0
KDR1 141755Z 08010KT 09/M01 A304 RMK A01 T00921005  RH  051%=      5-min Rain = 0
KDR1 141800Z 08010KT 10/M01 A304 RMK A01 T00951005  RH  050%=      5-min Rain = 0
KDR1 141805Z 06011G16KT 09/M01 A304 RMK A01 T00931006  RH  051%=      5-min Rain = 0
KDR1 141810Z 07010G16KT 10/M00 A304 RMK A01 T00991004  RH  049%=      5-min Rain = 0
KDR1 141815Z 06012KT 10/M01 A304 RMK A01 T01001005  RH  049%=      5-min Rain = 0
KDR1 141820Z 06012KT 10/M01 A3039 RMK A01 T00991006  RH  049%=      5-min Rain = 0
KDR1 141825Z 06011KT 10/M01 A3039 RMK A01 T00981006  RH  049%=      5-min Rain = 0
KDR1 141830Z 06012KT 10/M01 A3039 RMK A01 T00981007  RH  049%=      5-min Rain = 0
KDR1 141835Z 07011G16KT 10/M01 A3039 RMK A01 T01001007  RH  048%=      5-min Rain = 0
KDR1 141840Z 06008KT 10/M01 A3039 RMK A01 T00981007  RH  048%=      5-min Rain = 0
KDR1 141845Z 09011G17KT 10/M01 A3039 RMK A01 T01021006  RH  047%=      5-min Rain = 0
KDR1 141850Z 07008KT 10/M01 A3039 RMK A01 T01031005  RH  048%=      5-min Rain = 0
KDR1 141855Z 09011KT 10/M01 A3039 RMK A01 T01031006  RH  047%=      5-min Rain = 0
KDR1 141900Z 09007KT 10/M01 A3038 RMK A01 T01031006  RH  047%=      5-min Rain = 0
KDR1 141905Z 07010KT 10/M01 A3038 RMK A01 T01021008  RH  047%=      5-min Rain = 0
KDR1 141910Z 07009KT 10/M01 A3038 RMK A01 T01011007  RH  048%=      5-min Rain = 0
KDR1 141915Z 09011G16KT 11/M01 A3038 RMK A01 T01051007  RH  046%=      5-min Rain = 0
KDR1 141920Z 09010KT 11/M01 A3038 RMK A01 T01051008  RH  046%=      5-min Rain = 0
KDR1 141925Z 08008KT 11/M01 A3038 RMK A01 T01071007  RH  046%=      5-min Rain = 0
KDR1 141930Z 07008G14KT 10/M01 A3038 RMK A01 T01041008  RH  046%=      5-min Rain = 0
KDR1 141935Z 07009KT 10/M01 A3037 RMK A01 T01031009  RH  046%=      5-min Rain = 0
KDR1 141940Z 08008KT 11/M01 A3037 RMK A01 T01051008  RH  046%=      5-min Rain = 0
KDR1 141945Z 09009KT 11/M01 A3037 RMK A01 T01091009  RH  044%=      5-min Rain = 0
KDR1 141950Z 09009KT 11/M01 A3037 RMK A01 T01071009  RH  045%=      5-min Rain = 0
KDR1 141955Z 09009G14KT 11/M01 A3037 RMK A01 T01081008  RH  045%=      5-min Rain = 0
KDR1 142000Z 10008G13KT 11/M01 A3036 RMK A01 T01091007  RH  045%=      5-min Rain = 0
KDR1 142005Z 10006KT 11/M01 A3036 RMK A01 T01121008  RH  044%=      5-min Rain = 0
KDR1 142010Z 07007G12KT 11/M01 A3036 RMK A01 T01121010  RH  043%=      5-min Rain = 0
KDR1 142015Z 07007G12KT 11/M01 A3036 RMK A01 T01121011  RH  043%=      5-min Rain = 0
KDR1 142020Z 07008KT 11/M01 A3036 RMK A01 T01131010  RH  043%=      5-min Rain = 0
KDR1 142025Z 09007KT 11/M01 A3036 RMK A01 T01091011  RH  044%=      5-min Rain = 0
KDR1 142030Z 06008KT 11/M01 A3036 RMK A01 T01101011  RH  044%=      5-min Rain = 0
KDR1 142035Z 06004G9KT 11/M01 A3036 RMK A01 T01131012  RH  042%=      5-min Rain = 0
KDR1 142040Z 08007KT 12/M01 A3036 RMK A01 T01161012  RH  041%=      5-min Rain = 0
KDR1 142045Z 10007KT 12/M01 A3036 RMK A01 T01181012  RH  041%=      5-min Rain = 0
KDR1 142050Z 10003KT 12/M01 A3036 RMK A01 T01161013  RH  041%=      5-min Rain = 0
KDR1 142055Z 09006KT 12/M01 A3036 RMK A01 T01181012  RH  041%=      5-min Rain = 0
KDR1 142100Z 10006KT 12/M02 A3036 RMK A01 T01161015  RH  041%=      5-min Rain = 0
KDR1 142105Z 13003KT 12/M02 A3036 RMK A01 T01171015  RH  040%=      5-min Rain = 0
KDR1 142110Z 10005KT 12/M02 A3036 RMK A01 T01181017  RH  039%=      5-min Rain = 0
KDR1 142115Z 08004KT 12/M02 A3036 RMK A01 T01171019  RH  039%=      5-min Rain = 0
KDR1 142120Z 10006KT 12/M02 A3036 RMK A01 T01181021  RH  038%=      5-min Rain = 0
KDR1 142125Z 11006KT 12/M02 A3036 RMK A01 T01211021  RH  038%=      5-min Rain = 0
KDR1 142130Z 13003KT 12/M02 A3036 RMK A01 T01171019  RH  039%=      5-min Rain = 0
KDR1 142135Z 10003KT 12/M02 A3036 RMK A01 T01201019  RH  038%=      5-min Rain = 0
KDR1 142140Z 10006KT 12/M02 A3036 RMK A01 T01181019  RH  039%=      5-min Rain = 0
KDR1 142145Z 11004KT 12/M02 A3036 RMK A01 T01181020  RH  038%=      5-min Rain = 0
KDR1 142150Z 10004KT 12/M02 A3036 RMK A01 T01181022  RH  038%=      5-min Rain = 0
KDR1 142155Z 09003G8KT 12/M02 A3036 RMK A01 T01211023  RH  037%=      5-min Rain = 0
KDR1 142200Z 11006KT 12/M03 A3035 RMK A01 T01201026  RH  036%=      5-min Rain = 0
KDR1 142205Z 12005KT 12/M03 A3035 RMK A01 T01201026  RH  036%=      5-min Rain = 0
KDR1 142210Z 13004KT 12/M03 A3036 RMK A01 T01221026  RH  036%=      5-min Rain = 0
KDR1 142215Z 09005KT 12/M03 A3036 RMK A01 T01171028  RH  036%=      5-min Rain = 0
KDR1 142220Z 12003KT 12/M03 A3036 RMK A01 T01181030  RH  036%=      5-min Rain = 0
KDR1 142225Z 12004KT 12/M03 A3036 RMK A01 T01201031  RH  035%=      5-min Rain = 0
KDR1 142230Z 12004KT 12/M03 A3036 RMK A01 T01201030  RH  035%=      5-min Rain = 0
KDR1 142235Z 10005KT 12/M03 A3036 RMK A01 T01151027  RH  037%=      5-min Rain = 0
KDR1 142240Z 09002KT 12/M03 A3036 RMK A01 T01151027  RH  037%=      5-min Rain = 0
KDR1 142245Z 09004KT 11/M03 A3036 RMK A01 T01141027  RH  037%=      5-min Rain = 0
KDR1 142250Z 08003KT 11/M03 A3036 RMK A01 T01131028  RH  037%=      5-min Rain = 0
KDR1 142255Z 13004KT 12/M03 A3036 RMK A01 T01161026  RH  037%=      5-min Rain = 0
KDR1 142300Z 14004KT 12/M03 A3036 RMK A01 T01171027  RH  037%=      5-min Rain = 0
KDR1 142305Z 13004KT 12/M03 A3036 RMK A01 T01161027  RH  037%=      5-min Rain = 0
KDR1 142310Z 14003KT 12/M03 A3036 RMK A01 T01161028  RH  037%=      5-min Rain = 0
KDR1 142315Z 13003KT 11/M03 A3036 RMK A01 T01141027  RH  037%=      5-min Rain = 0
KDR1 142320Z 12004KT 11/M03 A3036 RMK A01 T01091027  RH  039%=      5-min Rain = 0
KDR1 142325Z 12004KT 11/M03 A3036 RMK A01 T01071027  RH  040%=      5-min Rain = 0
KDR1 142330Z 12003KT 10/M03 A3036 RMK A01 T01031027  RH  040%=      5-min Rain = 0
KDR1 142335Z 12004KT 10/M03 A3036 RMK A01 T00981028  RH  042%=      5-min Rain = 0
KDR1 142340Z 12004KT 09/M03 A3037 RMK A01 T00901028  RH  044%=      5-min Rain = 0
KDR1 142345Z 12004KT 08/M03 A3037 RMK A01 T00841027  RH  046%=      5-min Rain = 0
KDR1 142350Z 13004KT 08/M03 A3037 RMK A01 T00811027  RH  047%=      5-min Rain = 0
KDR1 142355Z 14005KT 07/M03 A3037 RMK A01 T00741026  RH  049%=      5-min Rain = 0
KDR1 150000Z 14005KT 07/M03 A3037 RMK A01 T00691027  RH  051%=      5-min Rain = 0
KDR1 150005Z 14005KT 06/M03 A3037 RMK A01 T00641028  RH  052%=      5-min Rain = 0
KDR1 150010Z 15005KT 06/M03 A3037 RMK A01 T00591029  RH  054%=      5-min Rain = 0
KDR1 150015Z 15006KT 06/M03 A3037 RMK A01 T00551029  RH  055%=      5-min Rain = 0
KDR1 150020Z 15005KT 06/M03 A3037 RMK A01 T00551028  RH  056%=      5-min Rain = 0
KDR1 150025Z 15006KT 05/M03 A3038 RMK A01 T00541029  RH  055%=      5-min Rain = 0
KDR1 150030Z 15006KT 05/M03 A3038 RMK A01 T00511029  RH  057%=      5-min Rain = 0
KDR1 150035Z 15007KT 05/M03 A3038 RMK A01 T00491029  RH  057%=      5-min Rain = 0
KDR1 150040Z 15007KT 05/M03 A3038 RMK A01 T00481028  RH  058%=      5-min Rain = 0
KDR1 150045Z 15007KT 05/M03 A3038 RMK A01 T00491028  RH  057%=      5-min Rain = 0
KDR1 150050Z 15007KT 05/M03 A3038 RMK A01 T00471029  RH  058%=      5-min Rain = 0
KDR1 150055Z 15008KT 05/M03 A3038 RMK A01 T00461028  RH  059%=      5-min Rain = 0
KDR1 150100Z 15007KT 05/M03 A3038 RMK A01 T00471029  RH  058%=      5-min Rain = 0
KDR1 150105Z 15007KT 04/M03 A3038 RMK A01 T00441029  RH  059%=      5-min Rain = 0
KDR1 150110Z 15007KT 05/M03 A3039 RMK A01 T00471029  RH  058%=      5-min Rain = 0
KDR1 150115Z 15007KT 04/M03 A3039 RMK A01 T00421031  RH  059%=      5-min Rain = 0
KDR1 150120Z 15008KT 04/M03 A3039 RMK A01 T00391031  RH  061%=      5-min Rain = 0
KDR1 150125Z 16008KT 04/M03 A3039 RMK A01 T00391030  RH  061%=      5-min Rain = 0
KDR1 150130Z 16008KT 04/M03 A3039 RMK A01 T00401029  RH  061%=      5-min Rain = 0
KDR1 150135Z 16008KT 04/M03 A3039 RMK A01 T00381030  RH  061%=      5-min Rain = 0
KDR1 150140Z 17008KT 04/M03 A3039 RMK A01 T00351031  RH  062%=      5-min Rain = 0
KDR1 150145Z 17008KT 04/M03 A304 RMK A01 T00391029  RH  062%=      5-min Rain = 0
KDR1 150150Z 18008KT 04/M03 A304 RMK A01 T00401029  RH  061%=      5-min Rain = 0
KDR1 150155Z 18008KT 04/M03 A304 RMK A01 T00401030  RH  061%=      5-min Rain = 0
KDR1 150200Z 18008KT 04/M03 A304 RMK A01 T00431029  RH  060%=      5-min Rain = 0
KDR1 150205Z 18008KT 04/M03 A304 RMK A01 T00431029  RH  060%=      5-min Rain = 0
KDR1 150210Z 17009KT 04/M03 A304 RMK A01 T00391030  RH  061%=      5-min Rain = 0
KDR1 150215Z 17009KT 04/M03 A304 RMK A01 T00391029  RH  062%=      5-min Rain = 0
KDR1 150220Z 17009KT 04/M03 A304 RMK A01 T00421028  RH  061%=      5-min Rain = 0
KDR1 150225Z 17009KT 04/M03 A304 RMK A01 T00401029  RH  061%=      5-min Rain = 0
KDR1 150230Z 18008KT 04/M03 A304 RMK A01 T00371030  RH  062%=      5-min Rain = 0
KDR1 150235Z 18009KT 04/M03 A304 RMK A01 T00351030  RH  063%=      5-min Rain = 0
KDR1 150240Z 18009KT 04/M03 A3041 RMK A01 T00391028  RH  062%=      5-min Rain = 0
KDR1 150245Z 18009KT 04/M03 A3041 RMK A01 T00391029  RH  062%=      5-min Rain = 0
KDR1 150250Z 19010KT 04/M03 A3041 RMK A01 T00411029  RH  061%=      5-min Rain = 0
KDR1 150255Z 19009KT 04/M03 A3041 RMK A01 T00411029  RH  061%=      5-min Rain = 0
KDR1 150300Z 19010KT 04/M03 A3041 RMK A01 T00391030  RH  061%=      5-min Rain = 0
KDR1 150305Z 19010KT 04/M03 A3041 RMK A01 T00381030  RH  061%=      5-min Rain = 0
KDR1 150310Z 19010KT 04/M03 A3041 RMK A01 T00371030  RH  062%=      5-min Rain = 0
KDR1 150315Z 19010KT 03/M03 A3041 RMK A01 T00331030  RH  063%=      5-min Rain = 0
KDR1 150320Z 19010KT 03/M03 A3041 RMK A01 T00311030  RH  064%=      5-min Rain = 0
KDR1 150325Z 19010KT 03/M03 A3041 RMK A01 T00281031  RH  065%=      5-min Rain = 0
KDR1 150330Z 19011KT 03/M03 A3041 RMK A01 T00281030  RH  066%=      5-min Rain = 0
KDR1 150335Z 19010KT 03/M03 A3042 RMK A01 T00281030  RH  066%=      5-min Rain = 0
KDR1 150340Z 19010KT 03/M03 A3042 RMK A01 T00251030  RH  067%=      5-min Rain = 0
KDR1 150345Z 19011KT 03/M03 A3042 RMK A01 T00271029  RH  067%=      5-min Rain = 0
KDR1 150350Z 19011KT 03/M03 A3042 RMK A01 T00281030  RH  066%=      5-min Rain = 0
KDR1 150355Z 19010KT 03/M03 A3042 RMK A01 T00281030  RH  066%=      5-min Rain = 0
KDR1 150400Z 19010KT 03/M03 A3042 RMK A01 T00281030  RH  066%=      5-min Rain = 0
KDR1 150405Z 19011KT 03/M03 A3042 RMK A01 T00271031  RH  066%=      5-min Rain = 0
KDR1 150410Z 19012KT 03/M03 A3042 RMK A01 T00251030  RH  067%=      5-min Rain = 0
KDR1 150415Z 19011KT 03/M03 A3042 RMK A01 T00261029  RH  067%=      5-min Rain = 0
KDR1 150420Z 19011KT 02/M03 A3042 RMK A01 T00241030  RH  068%=      5-min Rain = 0
KDR1 150425Z 19010KT 02/M03 A3042 RMK A01 T00211030  RH  069%=      5-min Rain = 0
KDR1 150430Z 20011KT 02/M03 A3042 RMK A01 T00211030  RH  070%=      5-min Rain = 0
KDR1 150435Z 20012KT 03/M03 A3042 RMK A01 T00271028  RH  068%=      5-min Rain = 0
KDR1 150440Z 20012KT 03/M03 A3042 RMK A01 T00281030  RH  066%=      5-min Rain = 0
KDR1 150445Z 20010KT 02/M03 A3042 RMK A01 T00221031  RH  068%=      5-min Rain = 0
KDR1 150450Z 20011KT 02/M03 A3042 RMK A01 T00181031  RH  070%=      5-min Rain = 0
KDR1 150455Z 20012KT 02/M03 A3042 RMK A01 T00201030  RH  070%=      5-min Rain = 0
KDR1 150500Z 20011KT 02/M03 A3042 RMK A01 T00221030  RH  069%=      5-min Rain = 0
KDR1 150505Z 19009KT 02/M03 A3042 RMK A01 T00161032  RH  070%=      5-min Rain = 0
KDR1 150510Z 20009KT 01/M03 A3042 RMK A01 T00131032  RH  073%=      5-min Rain = 0
KDR1 150515Z 20009KT 01/M03 A3042 RMK A01 T00131031  RH  073%=      5-min Rain = 0
KDR1 150520Z 20010KT 02/M03 A3042 RMK A01 T00151030  RH  072%=      5-min Rain = 0
KDR1 150525Z 20011KT 02/M03 A3042 RMK A01 T00201029  RH  070%=      5-min Rain = 0
KDR1 150530Z 20010KT 02/M03 A3042 RMK A01 T00201030  RH  070%=      5-min Rain = 0
KDR1 150535Z 20010KT 02/M03 A3042 RMK A01 T00201030  RH  070%=      5-min Rain = 0
KDR1 150540Z 20010KT 02/M03 A3042 RMK A01 T00151032  RH  072%=      5-min Rain = 0
KDR1 150545Z 20011KT 02/M03 A3042 RMK A01 T00191030  RH  071%=      5-min Rain = 0
KDR1 150550Z 20011KT 02/M03 A3042 RMK A01 T00241030  RH  068%=      5-min Rain = 0
KDR1 150555Z 20012KT 02/M03 A3042 RMK A01 T00231031  RH  068%=      5-min Rain = 0

Page generated in 0.0124 seconds.